Time;durP1;ratioP1;P1;durP2;ratioP2;P2;SDS_P1;SDS_P2;PMS_P1;PMS_P2;Temp;Humidity;BMP_temperature;BMP_pressure;BME280_temperature;BME280_humidity;BME280_pressure;Samples;Min_cycle;Max_cycle;Signal;HPM_P1;HPM_P2
2022/01/01 00:00:00;;;;;;;84.20;47.17;;;10.50;90.30;;;;;;4954965;28;20447;-77
2022/01/01 00:02:26;;;;;;;73.50;45.03;;;10.50;90.50;;;;;;4953020;28;20470;-75
2022/01/01 00:04:52;;;;;;;94.67;49.23;;;10.50;90.50;;;;;;4955314;28;20275;-76
2022/01/01 00:07:18;;;;;;;81.27;45.40;;;10.60;90.50;;;;;;4955844;28;20346;-78
2022/01/01 00:09:44;;;;;;;80.67;42.83;;;10.60;90.40;;;;;;4955310;28;20785;-78
2022/01/01 00:12:12;;;;;;;74.63;42.10;;;10.50;90.40;;;;;;4958499;28;20694;-78
2022/01/01 00:14:38;;;;;;;67.33;35.03;;;10.50;90.40;;;;;;4956291;28;20427;-76
2022/01/01 00:17:06;;;;;;;66.93;37.57;;;10.50;90.50;;;;;;4961700;28;20481;-77
2022/01/01 00:19:32;;;;;;;65.20;36.93;;;10.60;90.50;;;;;;4960841;28;21368;-76
2022/01/01 00:21:59;;;;;;;76.43;38.83;;;10.60;90.40;;;;;;4962161;28;20565;-75
2022/01/01 00:24:25;;;;;;;65.13;34.97;;;10.70;90.20;;;;;;4962750;28;20945;-75
2022/01/01 00:26:50;;;;;;;68.20;35.40;;;10.60;90.10;;;;;;4958487;28;20415;-78
2022/01/01 00:29:16;;;;;;;61.20;33.27;;;10.70;90.20;;;;;;4952563;28;21082;-75
2022/01/01 00:31:42;;;;;;;61.50;34.17;;;10.60;89.60;;;;;;4952521;28;20203;-75
2022/01/01 00:34:08;;;;;;;53.30;29.23;;;10.60;89.70;;;;;;4951502;28;20283;-75
2022/01/01 00:36:33;;;;;;;52.13;27.80;;;10.60;90.00;;;;;;4955502;28;20191;-75
2022/01/01 00:38:59;;;;;;;44.00;23.93;;;10.60;89.70;;;;;;4958431;28;20190;-75
2022/01/01 00:41:25;;;;;;;44.93;25.63;;;10.60;89.60;;;;;;4959110;28;20219;-76
2022/01/01 00:43:51;;;;;;;40.30;21.70;;;10.50;89.70;;;;;;4961025;28;20451;-75
2022/01/01 00:46:17;;;;;;;42.60;23.70;;;10.50;90.20;;;;;;4968366;28;20188;-75
2022/01/01 00:48:42;;;;;;;39.67;23.07;;;10.60;90.30;;;;;;4957821;28;20581;-75
2022/01/01 00:51:08;;;;;;;29.87;16.20;;;10.70;90.20;;;;;;4963289;28;20192;-77
2022/01/01 00:53:34;;;;;;;32.17;18.53;;;10.80;89.90;;;;;;4960685;28;20262;-76
2022/01/01 00:56:00;;;;;;;27.20;16.07;;;10.70;89.30;;;;;;4951954;29;20507;-77
2022/01/01 00:58:25;;;;;;;26.37;15.13;;;10.80;89.50;;;;;;4959508;28;20745;-77
2022/01/01 01:00:51;;;;;;;32.73;16.57;;;10.90;89.20;;;;;;4955224;28;20957;-74
2022/01/01 01:03:17;;;;;;;35.20;17.23;;;10.90;89.00;;;;;;4960230;28;20203;-76
2022/01/01 01:05:45;;;;;;;33.33;18.47;;;11.00;88.90;;;;;;4956665;28;20179;-74
2022/01/01 01:08:13;;;;;;;31.57;16.83;;;11.00;88.70;;;;;;4959784;28;20447;-74
2022/01/01 01:10:40;;;;;;;31.13;17.13;;;11.00;88.60;;;;;;4959287;28;20510;-75
2022/01/01 01:13:08;;;;;;;29.97;16.03;;;11.00;88.60;;;;;;4951596;29;20593;-75
2022/01/01 01:15:34;;;;;;;30.73;17.57;;;10.90;88.60;;;;;;4951194;29;20590;-74
2022/01/01 01:18:01;;;;;;;27.97;15.73;;;10.90;88.70;;;;;;4953242;28;20419;-75
2022/01/01 01:20:28;;;;;;;27.43;15.27;;;11.00;88.70;;;;;;4955009;28;20432;-74
2022/01/01 01:22:54;;;;;;;25.53;14.27;;;11.00;88.40;;;;;;4956424;28;20526;-75
2022/01/01 01:25:22;;;;;;;25.83;14.10;;;10.90;88.60;;;;;;4968662;29;20419;-74
2022/01/01 01:27:49;;;;;;;26.10;14.70;;;10.90;88.70;;;;;;4967747;29;20528;-73
2022/01/01 01:30:16;;;;;;;26.97;13.53;;;11.00;88.90;;;;;;4974099;28;20427;-75
2022/01/01 01:32:43;;;;;;;32.33;18.40;;;11.00;88.70;;;;;;4979623;28;20519;-74
2022/01/01 01:35:10;;;;;;;29.03;17.07;;;11.10;88.90;;;;;;4972752;28;20918;-74
2022/01/01 01:37:36;;;;;;;34.60;18.57;;;11.10;89.00;;;;;;4969897;28;20440;-74
2022/01/01 01:40:04;;;;;;;34.30;19.10;;;11.20;89.00;;;;;;4972746;28;20458;-73
2022/01/01 01:42:30;;;;;;;38.70;20.80;;;11.20;88.70;;;;;;4968735;28;20475;-74
2022/01/01 01:44:57;;;;;;;44.50;23.50;;;11.20;88.70;;;;;;4953716;28;20978;-74
2022/01/01 01:47:34;;;;;;;40.40;22.13;;;11.20;88.70;;;;;;4953382;28;20430;-75
2022/01/01 01:50:03;;;;;;;35.73;20.60;;;11.20;88.90;;;;;;4953387;29;21014;-76
2022/01/01 01:52:33;;;;;;;39.37;22.13;;;11.10;89.00;;;;;;4953086;28;20569;-75
2022/01/01 01:55:01;;;;;;;37.87;20.17;;;11.10;89.00;;;;;;4953569;28;20451;-77
2022/01/01 01:57:27;;;;;;;40.10;21.60;;;11.10;88.70;;;;;;4953737;28;20431;-76
2022/01/01 01:59:53;;;;;;;39.13;20.80;;;11.00;88.70;;;;;;4953341;28;20478;-78
2022/01/01 02:02:19;;;;;;;36.00;18.80;;;11.00;88.90;;;;;;4954774;28;20487;-75
2022/01/01 02:04:45;;;;;;;39.10;17.40;;;10.90;89.00;;;;;;4953430;28;20455;-76
2022/01/01 02:07:12;;;;;;;34.87;17.40;;;10.80;89.20;;;;;;4957711;28;20435;-74
2022/01/01 02:09:38;;;;;;;36.73;18.97;;;10.70;89.30;;;;;;4957827;28;20811;-74
2022/01/01 02:12:09;;;;;;;31.53;17.50;;;10.60;89.90;;;;;;4958238;28;20459;-74
2022/01/01 02:17:23;;;;;;;29.50;17.13;;;10.40;90.50;;;;;;4957543;28;20522;-75
2022/01/01 02:19:54;;;;;;;32.13;16.93;;;10.40;90.70;;;;;;4958480;28;20424;-76
2022/01/01 02:22:20;;;;;;;33.27;16.07;;;10.30;90.80;;;;;;4951447;28;20482;-74
2022/01/01 02:24:46;;;;;;;29.27;16.00;;;10.30;90.80;;;;;;4962844;28;20438;-74
2022/01/01 02:27:12;;;;;;;29.67;16.17;;;10.40;90.90;;;;;;4949725;29;20522;-74
2022/01/01 02:29:38;;;;;;;31.37;16.27;;;10.30;90.80;;;;;;4951880;28;20579;-76
2022/01/01 02:32:11;;;;;;;26.70;14.97;;;10.20;90.90;;;;;;4952124;28;20211;-74
2022/01/01 02:34:37;;;;;;;25.70;14.57;;;10.20;91.10;;;;;;4952473;28;20426;-75
2022/01/01 02:37:03;;;;;;;32.73;16.00;;;10.20;91.10;;;;;;4951433;29;20526;-74
2022/01/01 02:39:29;;;;;;;26.10;15.27;;;10.20;91.10;;;;;;4951536;28;20274;-76
2022/01/01 02:41:56;;;;;;;28.97;15.17;;;10.20;91.10;;;;;;4951947;28;20601;-76
2022/01/01 02:44:24;;;;;;;26.50;13.77;;;10.30;91.20;;;;;;4957104;28;20245;-76
2022/01/01 02:46:52;;;;;;;29.50;13.90;;;10.20;91.20;;;;;;4952161;28;20534;-76
2022/01/01 02:49:17;;;;;;;23.37;13.97;;;10.30;91.30;;;;;;4952043;28;20536;-74
2022/01/01 02:51:43;;;;;;;26.70;12.47;;;10.30;91.30;;;;;;4951767;28;20526;-75
2022/01/01 02:54:09;;;;;;;25.10;13.00;;;10.30;91.30;;;;;;4955614;28;20200;-77
2022/01/01 02:56:35;;;;;;;30.80;14.00;;;10.40;91.40;;;;;;4951702;28;20804;-76
2022/01/01 02:59:00;;;;;;;27.27;13.77;;;10.40;91.60;;;;;;4959951;28;20188;-76
2022/01/01 03:01:26;;;;;;;23.83;12.83;;;10.40;91.60;;;;;;4956905;28;20231;-75
2022/01/01 03:03:52;;;;;;;21.77;12.50;;;10.50;91.60;;;;;;4955120;28;20203;-76
2022/01/01 03:06:20;;;;;;;23.60;11.27;;;10.50;91.60;;;;;;4958065;28;20599;-76
2022/01/01 03:08:55;;;;;;;24.97;13.87;;;10.60;91.40;;;;;;4956999;28;20187;-76
2022/01/01 03:11:21;;;;;;;30.33;14.57;;;10.60;91.20;;;;;;4960592;28;20441;-76
2022/01/01 03:13:47;;;;;;;29.67;15.30;;;10.60;91.20;;;;;;4958066;28;20886;-75
2022/01/01 03:16:13;;;;;;;29.27;14.70;;;10.60;91.20;;;;;;4951865;28;20423;-76
2022/01/01 03:18:39;;;;;;;28.83;16.23;;;10.70;91.30;;;;;;4952229;29;20824;-75
2022/01/01 03:21:06;;;;;;;31.80;16.00;;;10.60;91.50;;;;;;4953279;28;20471;-75
2022/01/01 03:23:33;;;;;;;29.57;15.43;;;10.60;91.50;;;;;;4956626;28;20971;-76
2022/01/01 03:25:59;;;;;;;31.10;15.47;;;10.70;91.50;;;;;;4956342;28;20438;-74
2022/01/01 03:28:25;;;;;;;25.00;14.90;;;10.70;91.20;;;;;;4956764;28;20424;-76
2022/01/01 03:30:51;;;;;;;29.27;15.23;;;10.70;91.00;;;;;;4957286;28;20427;-76
2022/01/01 03:33:17;;;;;;;29.37;14.53;;;10.70;91.00;;;;;;4961513;28;20964;-76
2022/01/01 03:35:42;;;;;;;27.60;14.40;;;10.70;91.00;;;;;;4960334;28;20195;-75
2022/01/01 03:38:08;;;;;;;24.10;13.60;;;10.70;91.00;;;;;;4962894;28;20611;-77
2022/01/01 03:40:34;;;;;;;22.97;12.30;;;10.80;91.00;;;;;;4960996;28;20183;-76
2022/01/01 03:43:00;;;;;;;24.30;13.13;;;10.70;90.90;;;;;;4958189;28;20250;-76
2022/01/01 03:45:25;;;;;;;21.83;11.43;;;10.80;90.70;;;;;;4964491;28;20294;-76
2022/01/01 03:47:52;;;;;;;19.50;10.90;;;10.70;90.70;;;;;;4972094;28;20600;-76
2022/01/01 03:50:18;;;;;;;20.83;10.13;;;10.70;90.50;;;;;;4971056;28;20182;-76
2022/01/01 03:52:45;;;;;;;23.13;10.60;;;10.70;90.30;;;;;;4964052;28;20884;-76
2022/01/01 03:55:12;;;;;;;21.43;10.33;;;10.80;90.40;;;;;;4965681;28;20455;-75
2022/01/01 03:57:38;;;;;;;21.40;10.77;;;10.80;90.30;;;;;;4955235;28;20600;-75
2022/01/01 04:00:07;;;;;;;21.20;11.23;;;10.70;90.10;;;;;;4956613;28;20997;-76
2022/01/01 04:02:33;;;;;;;23.03;10.60;;;10.70;90.20;;;;;;4955187;28;20885;-75
2022/01/01 04:04:59;;;;;;;21.50;9.80;;;10.60;90.40;;;;;;4956008;28;20426;-76
2022/01/01 04:07:25;;;;;;;16.60;9.77;;;10.60;90.60;;;;;;4953399;28;20518;-75
2022/01/01 04:09:50;;;;;;;15.50;8.57;;;10.60;90.90;;;;;;4953017;28;20507;-75
2022/01/01 04:12:16;;;;;;;17.50;9.60;;;10.60;91.10;;;;;;4956916;28;20218;-75
2022/01/01 04:14:42;;;;;;;18.70;10.00;;;10.70;91.00;;;;;;4953476;28;20192;-75
2022/01/01 04:17:10;;;;;;;14.67;8.57;;;10.80;90.90;;;;;;4955620;28;20180;-76
2022/01/01 04:19:39;;;;;;;16.97;8.40;;;10.80;91.10;;;;;;4965720;28;20463;-76
2022/01/01 04:22:09;;;;;;;17.57;9.50;;;10.90;91.10;;;;;;4961913;28;20669;-76
2022/01/01 04:24:36;;;;;;;18.03;9.20;;;11.00;91.10;;;;;;4956396;28;20894;-76
2022/01/01 04:27:02;;;;;;;17.67;9.33;;;11.00;91.10;;;;;;4960470;28;20419;-78
2022/01/01 04:29:28;;;;;;;17.67;9.17;;;11.10;91.20;;;;;;4954341;28;20905;-75
2022/01/01 04:31:55;;;;;;;12.63;7.63;;;11.10;91.20;;;;;;4960001;28;20423;-76
2022/01/01 04:34:22;;;;;;;16.60;8.33;;;11.10;91.30;;;;;;4956653;28;20434;-76
2022/01/01 04:36:55;;;;;;;13.07;7.57;;;11.20;91.20;;;;;;4953364;28;21363;-77
2022/01/01 04:39:21;;;;;;;15.03;7.70;;;11.20;91.20;;;;;;4954726;28;20427;-77
2022/01/01 04:41:47;;;;;;;14.73;9.07;;;11.20;91.10;;;;;;4953308;28;20537;-76
2022/01/01 04:44:12;;;;;;;14.63;8.90;;;11.10;90.80;;;;;;4954655;28;20212;-74
2022/01/01 04:46:38;;;;;;;23.10;11.63;;;11.10;90.80;;;;;;4953718;28;20270;-75
2022/01/01 04:49:04;;;;;;;19.87;10.60;;;11.10;90.50;;;;;;4958183;28;20184;-75
2022/01/01 04:51:30;;;;;;;17.80;9.80;;;11.10;90.40;;;;;;4954930;28;20610;-76
2022/01/01 04:54:00;;;;;;;18.43;10.23;;;11.00;90.40;;;;;;4955994;28;20494;-76
2022/01/01 04:56:28;;;;;;;21.50;10.63;;;10.90;90.50;;;;;;4955941;28;20267;-76
2022/01/01 04:58:55;;;;;;;19.40;11.27;;;10.80;90.70;;;;;;4956848;28;20435;-75
2022/01/01 05:01:21;;;;;;;17.13;9.30;;;10.80;90.70;;;;;;4955324;28;20466;-77
2022/01/01 05:03:47;;;;;;;18.90;9.67;;;10.70;90.90;;;;;;4965284;28;20443;-75
2022/01/01 05:06:13;;;;;;;17.20;9.50;;;10.60;91.00;;;;;;4965431;28;20202;-75
2022/01/01 05:08:39;;;;;;;16.67;9.50;;;10.50;91.10;;;;;;4960319;28;20915;-76
2022/01/01 05:11:05;;;;;;;16.40;8.60;;;10.40;91.20;;;;;;4966668;28;20202;-77
2022/01/01 05:13:32;;;;;;;18.90;8.50;;;10.30;91.40;;;;;;4959715;28;21371;-76
2022/01/01 05:15:58;;;;;;;17.57;9.17;;;10.30;91.60;;;;;;4958420;28;20431;-75
2022/01/01 05:18:24;;;;;;;15.07;8.57;;;10.20;91.80;;;;;;4965731;28;20507;-75
2022/01/01 05:20:51;;;;;;;16.73;8.87;;;10.10;92.10;;;;;;4957657;28;20470;-75
2022/01/01 05:23:17;;;;;;;15.63;8.60;;;10.00;92.30;;;;;;4960106;28;20294;-75
2022/01/01 05:25:42;;;;;;;12.77;6.43;;;10.00;92.60;;;;;;4962937;28;20459;-77
2022/01/01 05:28:08;;;;;;;17.77;9.30;;;9.90;92.80;;;;;;4956083;28;20937;-74
2022/01/01 05:30:34;;;;;;;13.67;7.83;;;9.80;93.00;;;;;;4959522;28;20184;-74
2022/01/01 05:33:01;;;;;;;14.23;6.43;;;9.80;93.20;;;;;;4959905;28;20950;-76
2022/01/01 05:35:27;;;;;;;9.77;6.20;;;9.70;93.10;;;;;;4953724;28;20192;-77
2022/01/01 05:37:52;;;;;;;11.40;6.57;;;9.70;93.10;;;;;;4954549;28;20422;-76
2022/01/01 05:40:18;;;;;;;12.70;7.27;;;9.60;92.90;;;;;;4956177;28;20465;-75
2022/01/01 05:42:44;;;;;;;14.13;7.07;;;9.60;92.80;;;;;;4962959;28;20223;-77
2022/01/01 05:45:10;;;;;;;13.43;7.10;;;9.60;92.90;;;;;;4958165;28;20427;-75
2022/01/01 05:47:37;;;;;;;12.60;7.30;;;9.60;93.00;;;;;;4956801;28;20191;-75
2022/01/01 05:50:03;;;;;;;12.73;7.10;;;9.60;93.00;;;;;;4959902;28;20833;-75
2022/01/01 05:52:29;;;;;;;12.70;6.67;;;9.70;92.80;;;;;;4958140;28;20447;-75
2022/01/01 05:54:55;;;;;;;12.47;6.50;;;9.60;92.80;;;;;;4952869;28;20463;-75
2022/01/01 05:57:20;;;;;;;13.73;7.40;;;9.60;92.80;;;;;;4958963;28;20191;-75
2022/01/01 05:59:46;;;;;;;17.33;7.80;;;9.60;92.70;;;;;;4954982;28;20551;-75
2022/01/01 06:02:12;;;;;;;15.43;7.67;;;9.60;92.90;;;;;;4953983;28;20702;-77
2022/01/01 06:04:38;;;;;;;13.20;7.10;;;9.60;93.00;;;;;;4956822;28;20667;-77
2022/01/01 06:07:04;;;;;;;14.63;7.33;;;9.60;93.00;;;;;;4962347;28;20180;-76
2022/01/01 06:09:30;;;;;;;14.60;6.77;;;9.60;93.00;;;;;;4954561;28;20423;-76
2022/01/01 06:11:55;;;;;;;12.30;6.73;;;9.60;92.80;;;;;;4957376;28;21000;-76
2022/01/01 06:14:21;;;;;;;10.63;6.57;;;9.60;92.60;;;;;;4972516;28;20260;-77
2022/01/01 06:16:48;;;;;;;14.80;6.90;;;9.70;92.60;;;;;;4973648;28;20203;-76
2022/01/01 06:19:14;;;;;;;11.30;6.70;;;9.60;92.30;;;;;;4975035;28;20184;-76
2022/01/01 06:21:40;;;;;;;9.40;5.60;;;9.60;92.30;;;;;;4960364;28;20463;-75
2022/01/01 06:24:06;;;;;;;11.63;5.50;;;9.60;91.90;;;;;;4953499;28;21228;-75
2022/01/01 06:26:32;;;;;;;10.60;5.70;;;9.70;91.40;;;;;;4951772;28;20199;-76
2022/01/01 06:28:58;;;;;;;10.50;5.50;;;9.70;90.90;;;;;;4955255;28;20953;-75
2022/01/01 06:31:24;;;;;;;11.73;6.10;;;9.80;90.40;;;;;;4957235;28;20427;-76
2022/01/01 06:33:50;;;;;;;13.27;5.90;;;9.70;90.10;;;;;;4955141;28;20439;-74
2022/01/01 06:36:17;;;;;;;9.67;5.70;;;9.70;90.10;;;;;;4955483;28;20446;-74
2022/01/01 06:38:44;;;;;;;9.00;4.97;;;9.80;90.10;;;;;;4954963;28;20187;-75
2022/01/01 06:41:11;;;;;;;9.10;5.33;;;9.80;89.90;;;;;;4958656;28;20468;-75
2022/01/01 06:43:38;;;;;;;11.20;5.43;;;9.90;89.90;;;;;;4955396;28;21166;-75
2022/01/01 06:46:05;;;;;;;8.83;5.90;;;9.90;89.50;;;;;;4951958;28;20424;-75
2022/01/01 06:48:31;;;;;;;9.43;5.10;;;10.00;89.30;;;;;;4961543;28;20424;-76
2022/01/01 06:50:56;;;;;;;10.80;5.07;;;10.00;88.90;;;;;;4960279;28;20428;-74
2022/01/01 06:53:22;;;;;;;6.70;4.43;;;10.00;88.30;;;;;;4957041;28;20576;-74
2022/01/01 06:55:48;;;;;;;10.43;5.53;;;10.00;87.70;;;;;;4962552;28;20702;-75
2022/01/01 06:58:14;;;;;;;9.73;5.10;;;10.10;87.70;;;;;;4956384;28;20707;-75
2022/01/01 07:00:40;;;;;;;7.90;4.63;;;10.10;87.60;;;;;;4960666;28;20251;-75
2022/01/01 07:03:06;;;;;;;8.30;4.83;;;10.10;87.70;;;;;;4957583;28;20275;-74
2022/01/01 07:05:32;;;;;;;10.80;5.23;;;10.20;87.60;;;;;;4955990;28;21271;-76
2022/01/01 07:07:58;;;;;;;8.70;4.87;;;10.20;87.30;;;;;;4955500;28;20482;-75
2022/01/01 07:10:24;;;;;;;9.90;4.77;;;10.20;87.40;;;;;;4951469;28;20847;-75
2022/01/01 07:12:51;;;;;;;8.77;6.00;;;10.20;87.60;;;;;;4952209;28;20754;-76
2022/01/01 07:15:17;;;;;;;9.73;5.53;;;10.20;87.60;;;;;;4956823;28;20435;-76
2022/01/01 07:17:43;;;;;;;7.40;5.10;;;10.30;87.60;;;;;;4956582;28;20196;-75
2022/01/01 07:20:10;;;;;;;9.60;5.20;;;10.40;87.60;;;;;;4956716;28;20527;-76
2022/01/01 07:22:43;;;;;;;9.93;5.23;;;10.40;87.40;;;;;;4956099;28;20606;-76
2022/01/01 07:25:10;;;;;;;10.10;4.90;;;10.50;87.10;;;;;;4957226;28;20424;-76
2022/01/01 07:27:37;;;;;;;10.00;5.37;;;10.50;86.90;;;;;;4952472;28;21054;-76
2022/01/01 07:30:05;;;;;;;13.10;4.73;;;10.50;86.90;;;;;;4952482;28;20774;-76
2022/01/01 07:32:30;;;;;;;8.63;5.40;;;10.50;86.60;;;;;;4951620;28;20458;-77
2022/01/01 07:34:56;;;;;;;9.57;5.10;;;10.50;86.50;;;;;;4951536;28;20520;-77
2022/01/01 07:37:22;;;;;;;10.23;5.67;;;10.50;86.80;;;;;;4957362;28;20195;-77
2022/01/01 07:39:47;;;;;;;9.73;4.47;;;10.60;86.80;;;;;;4951893;28;20756;-76
2022/01/01 07:42:13;;;;;;;9.10;5.03;;;10.70;86.80;;;;;;4951797;28;20228;-76
2022/01/01 07:44:40;;;;;;;11.07;5.53;;;10.70;86.90;;;;;;4957568;28;20262;-76
2022/01/01 07:47:06;;;;;;;6.40;3.90;;;10.70;86.80;;;;;;4952487;28;20931;-75
2022/01/01 07:49:32;;;;;;;8.80;5.27;;;10.80;86.50;;;;;;4959869;28;20442;-76
2022/01/01 07:51:58;;;;;;;8.03;4.50;;;10.80;85.50;;;;;;4953883;28;20436;-75
2022/01/01 07:54:23;;;;;;;8.20;4.70;;;10.80;85.60;;;;;;4955574;28;20208;-76
2022/01/01 07:56:49;;;;;;;6.60;4.10;;;10.80;85.50;;;;;;4955619;28;20192;-75
2022/01/01 07:59:15;;;;;;;5.60;3.70;;;10.80;85.00;;;;;;4955256;28;20200;-76
2022/01/01 08:01:43;;;;;;;9.07;4.90;;;10.90;84.70;;;;;;4955580;28;20208;-75
2022/01/01 08:04:09;;;;;;;6.80;4.40;;;10.90;84.60;;;;;;4951959;28;20282;-76
2022/01/01 08:06:35;;;;;;;10.37;4.80;;;10.90;84.60;;;;;;4957493;28;20466;-75
2022/01/01 08:09:01;;;;;;;9.50;4.90;;;11.00;84.10;;;;;;4952309;28;20478;-75
2022/01/01 08:11:27;;;;;;;9.50;4.93;;;10.90;83.80;;;;;;4961249;28;20442;-75
2022/01/01 08:13:53;;;;;;;8.70;4.50;;;10.90;84.10;;;;;;4960712;28;20439;-76
2022/01/01 08:16:19;;;;;;;6.37;3.97;;;10.90;84.30;;;;;;4955007;28;20725;-73
2022/01/01 08:18:45;;;;;;;7.27;4.23;;;10.80;84.00;;;;;;4955419;28;20438;-75
2022/01/01 08:21:11;;;;;;;8.80;4.87;;;10.80;83.80;;;;;;4957709;28;20475;-77
2022/01/01 08:23:36;;;;;;;7.13;4.20;;;10.80;84.40;;;;;;4957100;28;20320;-76
2022/01/01 08:26:02;;;;;;;7.40;4.47;;;10.80;84.30;;;;;;4953690;28;20243;-76
2022/01/01 08:28:28;;;;;;;9.90;4.40;;;10.80;84.60;;;;;;4954012;28;20275;-76
2022/01/01 08:30:55;;;;;;;8.03;4.27;;;10.60;83.60;;;;;;4958165;28;20448;-76
2022/01/01 08:33:21;;;;;;;4.47;3.60;;;10.60;83.60;;;;;;4957358;28;20208;-76
2022/01/01 08:35:47;;;;;;;7.40;3.90;;;10.50;82.80;;;;;;4960419;28;20504;-76
2022/01/01 08:38:13;;;;;;;7.63;4.47;;;10.50;82.20;;;;;;4960155;28;20424;-75
2022/01/01 08:40:40;;;;;;;9.30;4.13;;;10.50;81.80;;;;;;4959087;28;20698;-75
2022/01/01 08:43:05;;;;;;;6.80;3.60;;;10.60;81.70;;;;;;4963476;28;20455;-75
2022/01/01 08:45:31;;;;;;;5.27;3.50;;;10.50;81.50;;;;;;4959552;28;20857;-76
2022/01/01 08:47:57;;;;;;;7.57;4.23;;;10.50;81.80;;;;;;4954618;29;20666;-75
2022/01/01 08:50:23;;;;;;;6.30;4.07;;;10.50;81.80;;;;;;4962558;28;20195;-76
2022/01/01 08:52:49;;;;;;;10.00;5.40;;;10.50;82.10;;;;;;4959816;28;20203;-76
2022/01/01 08:55:14;;;;;;;5.70;3.97;;;10.40;81.80;;;;;;4955742;28;20254;-76
2022/01/01 08:57:40;;;;;;;5.30;3.43;;;10.40;81.70;;;;;;4961023;28;20438;-75
2022/01/01 09:00:11;;;;;;;7.57;4.27;;;10.40;81.20;;;;;;4955875;28;20188;-76
2022/01/01 09:02:37;;;;;;;7.27;3.30;;;10.50;80.80;;;;;;4956838;28;20604;-76
2022/01/01 09:05:03;;;;;;;5.00;3.40;;;10.50;80.20;;;;;;4956782;28;20434;-75
2022/01/01 09:07:29;;;;;;;8.33;4.17;;;10.50;80.50;;;;;;4957191;28;20438;-76
2022/01/01 09:10:00;;;;;;;6.80;3.63;;;10.60;80.50;;;;;;4955859;28;20420;-75
2022/01/01 09:12:27;;;;;;;9.87;4.33;;;10.70;80.60;;;;;;4958660;28;20459;-75
2022/01/01 09:14:53;;;;;;;8.80;4.30;;;10.80;80.20;;;;;;4956926;28;20455;-75
2022/01/01 09:17:19;;;;;;;14.90;4.97;;;10.90;79.70;;;;;;4955032;28;20427;-76
2022/01/01 09:19:45;;;;;;;9.57;4.80;;;10.90;80.00;;;;;;4959642;28;20984;-76
2022/01/01 09:22:10;;;;;;;9.07;4.07;;;11.00;80.50;;;;;;4953744;28;20615;-75
2022/01/01 09:24:36;;;;;;;8.43;4.30;;;11.00;80.60;;;;;;4956685;28;20206;-75
2022/01/01 09:27:04;;;;;;;8.50;4.07;;;11.00;80.80;;;;;;4957459;28;20211;-75
2022/01/01 09:29:29;;;;;;;5.40;3.73;;;11.10;80.20;;;;;;4963949;28;20192;-77
2022/01/01 09:31:55;;;;;;;6.57;4.20;;;11.10;80.20;;;;;;4957167;28;20938;-76
2022/01/01 09:34:21;;;;;;;6.97;3.50;;;11.00;80.00;;;;;;4963193;28;20200;-75
2022/01/01 09:36:49;;;;;;;7.63;3.63;;;11.00;80.50;;;;;;4962975;28;20663;-75
2022/01/01 09:39:16;;;;;;;6.17;3.40;;;11.00;80.50;;;;;;4962857;28;20432;-76
2022/01/01 09:41:43;;;;;;;5.80;3.20;;;11.10;80.30;;;;;;4959192;28;20531;-76
2022/01/01 09:44:17;;;;;;;8.03;4.00;;;11.10;80.30;;;;;;4976580;28;20414;-77
2022/01/01 09:46:44;;;;;;;6.63;4.00;;;11.10;80.20;;;;;;4971498;28;20930;-76
2022/01/01 09:49:12;;;;;;;9.07;4.23;;;11.20;80.00;;;;;;4970765;28;20461;-77
2022/01/01 09:51:39;;;;;;;5.23;4.10;;;11.20;80.00;;;;;;4967663;28;20458;-77
2022/01/01 09:54:05;;;;;;;7.33;4.07;;;11.30;80.00;;;;;;4965205;28;20470;-75
2022/01/01 09:56:31;;;;;;;7.77;4.67;;;11.40;79.70;;;;;;4961224;28;20439;-76
2022/01/01 09:58:57;;;;;;;5.33;3.73;;;11.50;79.70;;;;;;4968423;28;20389;-76
2022/01/01 10:01:22;;;;;;;4.97;3.17;;;11.60;79.60;;;;;;4958916;29;20518;-77
2022/01/01 10:03:53;;;;;;;7.53;3.40;;;11.70;79.30;;;;;;4953080;28;21016;-76
2022/01/01 10:06:21;;;;;;;7.80;3.37;;;11.80;79.50;;;;;;4954450;28;20255;-77
2022/01/01 10:08:56;;;;;;;6.60;3.20;;;11.80;79.30;;;;;;4955582;28;20412;-76
2022/01/01 10:11:23;;;;;;;7.57;3.67;;;11.90;79.30;;;;;;4953081;29;20494;-77
2022/01/01 10:13:49;;;;;;;5.90;3.93;;;12.00;78.90;;;;;;4953328;29;20475;-75
2022/01/01 10:16:16;;;;;;;6.30;3.50;;;12.00;79.30;;;;;;4956945;28;20431;-76
2022/01/01 10:18:45;;;;;;;5.73;3.17;;;12.10;79.60;;;;;;4954985;28;20742;-77
2022/01/01 10:21:16;;;;;;;14.10;3.57;;;12.10;79.50;;;;;;4955549;28;20463;-78
2022/01/01 10:23:53;;;;;;;6.17;3.43;;;12.10;79.30;;;;;;4954548;28;20502;-76
2022/01/01 10:29:32;;;;;;;6.70;3.57;;;12.30;79.60;;;;;;4951406;28;20459;-76
2022/01/01 10:32:08;;;;;;;7.00;3.23;;;12.30;79.50;;;;;;4956358;28;20417;-77
2022/01/01 10:34:38;;;;;;;6.60;2.93;;;12.40;79.60;;;;;;4967097;28;20413;-76
2022/01/01 10:37:06;;;;;;;5.37;3.47;;;12.50;79.50;;;;;;4959885;28;20502;-76
2022/01/01 10:39:32;;;;;;;5.93;2.87;;;12.50;79.30;;;;;;4953738;28;20515;-76
2022/01/01 10:42:00;;;;;;;5.43;2.77;;;12.60;79.20;;;;;;4960727;28;20475;-76
2022/01/01 10:44:30;;;;;;;4.20;2.90;;;12.80;79.30;;;;;;4950639;29;20436;-75
2022/01/01 10:47:14;;;;;;;5.80;2.90;;;13.00;79.20;;;;;;4953724;28;20427;-76
2022/01/01 10:52:21;;;;;;;12.67;7.00;;;13.60;75.40;;;;;;4957782;28;20956;-75
2022/01/01 10:54:52;;;;;;;10.80;6.23;;;13.70;74.30;;;;;;4952127;28;20869;-76
2022/01/01 10:57:33;;;;;;;13.17;5.90;;;13.80;73.90;;;;;;4957613;28;20423;-75
2022/01/01 11:00:34;;;;;;;10.97;6.07;;;13.80;73.70;;;;;;4953975;28;20422;-74
2022/01/01 11:03:00;;;;;;;10.27;5.60;;;14.10;74.20;;;;;;4944882;29;20503;-76
2022/01/01 11:05:34;;;;;;;10.13;5.20;;;14.50;72.70;;;;;;4954047;28;20792;-75
2022/01/01 11:08:01;;;;;;;11.00;6.83;;;14.70;70.50;;;;;;4951308;28;20468;-75
2022/01/01 11:10:28;;;;;;;11.07;5.70;;;14.90;70.10;;;;;;4954184;28;20436;-74
2022/01/01 11:12:55;;;;;;;10.97;5.50;;;15.00;69.90;;;;;;4954195;28;20435;-74
2022/01/01 11:15:21;;;;;;;11.90;6.60;;;15.00;69.80;;;;;;4952125;28;20498;-76
2022/01/01 11:17:48;;;;;;;8.63;5.50;;;15.10;69.70;;;;;;4950936;28;20520;-74
2022/01/01 11:20:16;;;;;;;10.17;5.80;;;15.00;69.90;;;;;;4952411;28;20439;-76
2022/01/01 11:22:42;;;;;;;11.13;6.30;;;14.90;69.90;;;;;;4955996;28;20541;-75
2022/01/01 11:25:09;;;;;;;9.87;5.97;;;14.80;70.40;;;;;;4955039;28;20427;-73
2022/01/01 11:27:36;;;;;;;14.33;7.57;;;14.70;71.00;;;;;;4957433;28;20466;-75
2022/01/01 11:30:06;;;;;;;13.00;6.90;;;14.70;70.70;;;;;;4950885;28;20434;-76
2022/01/01 11:32:44;;;;;;;12.13;6.80;;;14.50;71.10;;;;;;4952906;28;20447;-76
2022/01/01 11:35:33;;;;;;;17.33;8.00;;;14.40;72.30;;;;;;4953795;28;20442;-74
2022/01/01 11:38:10;;;;;;;12.83;6.70;;;14.20;73.20;;;;;;4957024;28;21033;-76
2022/01/01 11:41:01;;;;;;;11.17;6.43;;;14.10;74.00;;;;;;4951089;28;20478;-76
2022/01/01 11:43:49;;;;;;;12.67;6.97;;;14.10;74.60;;;;;;4952936;28;20803;-76
2022/01/01 11:46:14;;;;;;;13.20;7.57;;;14.00;75.10;;;;;;4948131;29;20451;-75
2022/01/01 11:48:41;;;;;;;14.10;7.30;;;14.10;74.90;;;;;;4954196;28;20506;-74
2022/01/01 11:51:31;;;;;;;14.47;7.30;;;14.10;74.80;;;;;;4954730;28;20784;-75
2022/01/01 11:54:14;;;;;;;9.10;5.43;;;14.10;75.20;;;;;;4960151;28;20459;-75
2022/01/01 11:56:52;;;;;;;12.03;5.97;;;14.00;74.90;;;;;;4958636;28;20423;-75
2022/01/01 11:59:22;;;;;;;11.33;6.40;;;13.90;75.10;;;;;;4955782;28;20518;-75
2022/01/01 12:01:50;;;;;;;9.67;5.53;;;13.90;75.10;;;;;;4953420;28;20475;-75
2022/01/01 12:04:39;;;;;;;13.40;5.50;;;13.90;75.10;;;;;;4957431;28;20941;-75
2022/01/01 12:07:12;;;;;;;9.37;5.90;;;13.90;75.10;;;;;;4955793;28;20926;-74
2022/01/01 12:10:02;;;;;;;9.73;5.30;;;14.00;75.10;;;;;;4959036;28;20495;-75
2022/01/01 12:12:55;;;;;;;7.03;4.90;;;14.00;75.10;;;;;;4957119;28;20474;-75
2022/01/01 12:15:24;;;;;;;10.03;6.03;;;14.10;74.90;;;;;;4950075;28;20419;-75
2022/01/01 12:18:10;;;;;;;10.07;5.90;;;14.20;74.80;;;;;;4954962;28;20518;-75
2022/01/01 12:20:51;;;;;;;12.53;7.57;;;14.20;74.50;;;;;;4953779;28;20438;-75
2022/01/01 12:23:19;;;;;;;17.37;8.27;;;14.20;74.30;;;;;;4964394;28;20449;-75
2022/01/01 12:25:47;;;;;;;16.53;9.27;;;14.20;74.30;;;;;;4957537;28;20517;-75
2022/01/01 12:28:18;;;;;;;19.37;11.10;;;14.20;73.70;;;;;;4954764;28;20421;-75
2022/01/01 12:30:51;;;;;;;20.03;10.27;;;14.20;73.90;;;;;;4956767;28;20486;-76
2022/01/01 12:33:41;;;;;;;17.23;10.60;;;14.20;73.90;;;;;;4949967;28;20523;-74
2022/01/01 12:36:10;;;;;;;15.60;9.10;;;14.00;73.70;;;;;;4957478;28;20424;-76
2022/01/01 12:38:40;;;;;;;20.27;10.60;;;13.90;74.60;;;;;;4955006;28;20431;-75
2022/01/01 12:41:19;;;;;;;16.10;8.97;;;13.90;74.90;;;;;;4954729;28;20419;-75
2022/01/01 12:43:56;;;;;;;15.67;9.70;;;13.90;74.90;;;;;;4957140;28;20443;-75
2022/01/01 12:46:27;;;;;;;17.63;10.37;;;14.10;74.50;;;;;;4955452;28;20452;-75
2022/01/01 12:48:55;;;;;;;17.77;9.30;;;14.10;74.20;;;;;;4956911;28;20452;-76